sensor_id;sensor_type;location;lat;lon;timestamp;pressure;altitude;pressure_sealevel;temperature;humidity
5522;BME280;2783;48.730;8.006;2023-02-12T00:02:05;102147.66;;;7.07;83.93
5522;BME280;2783;48.730;8.006;2023-02-12T00:04:30;102147.69;;;7.10;83.65
5522;BME280;2783;48.730;8.006;2023-02-12T00:06:55;102145.91;;;7.10;83.99
5522;BME280;2783;48.730;8.006;2023-02-12T00:09:20;102151.13;;;7.06;84.12
5522;BME280;2783;48.730;8.006;2023-02-12T00:11:46;102144.06;;;7.05;83.50
5522;BME280;2783;48.730;8.006;2023-02-12T00:14:11;102147.69;;;7.10;84.00
5522;BME280;2783;48.730;8.006;2023-02-12T00:16:36;102151.16;;;7.07;83.19
5522;BME280;2783;48.730;8.006;2023-02-12T00:19:01;102147.59;;;7.05;83.31
5522;BME280;2783;48.730;8.006;2023-02-12T00:21:27;102144.06;;;7.05;83.52
5522;BME280;2783;48.730;8.006;2023-02-12T00:23:52;102143.19;;;7.04;83.38
5522;BME280;2783;48.730;8.006;2023-02-12T00:26:19;102140.50;;;7.01;83.83
5522;BME280;2783;48.730;8.006;2023-02-12T00:28:44;102143.13;;;7.01;84.26
5522;BME280;2783;48.730;8.006;2023-02-12T00:31:11;102145.81;;;7.03;83.84
5522;BME280;2783;48.730;8.006;2023-02-12T00:33:37;102144.91;;;7.02;83.56
5522;BME280;2783;48.730;8.006;2023-02-12T00:36:02;102144.91;;;7.02;84.11
5522;BME280;2783;48.730;8.006;2023-02-12T00:38:28;102141.47;;;7.08;83.86
5522;BME280;2783;48.730;8.006;2023-02-12T00:40:53;102147.56;;;7.04;84.56
5522;BME280;2783;48.730;8.006;2023-02-12T00:43:18;102144.78;;;6.93;84.96
5522;BME280;2783;48.730;8.006;2023-02-12T00:45:44;102139.44;;;6.90;85.70
5522;BME280;2783;48.730;8.006;2023-02-12T00:48:10;102150.03;;;6.90;86.26
5522;BME280;2783;48.730;8.006;2023-02-12T00:50:35;102153.50;;;6.89;86.59
5522;BME280;2783;48.730;8.006;2023-02-12T00:53:00;102150.84;;;6.88;86.35
5522;BME280;2783;48.730;8.006;2023-02-12T00:55:26;102159.69;;;6.90;87.23
5522;BME280;2783;48.730;8.006;2023-02-12T00:57:51;102157.06;;;6.91;87.26
5522;BME280;2783;48.730;8.006;2023-02-12T01:00:16;102154.44;;;6.91;87.37
5522;BME280;2783;48.730;8.006;2023-02-12T01:02:41;102155.34;;;6.93;87.06
5522;BME280;2783;48.730;8.006;2023-02-12T01:05:07;102157.09;;;6.93;86.69
5522;BME280;2783;48.730;8.006;2023-02-12T01:07:32;102156.19;;;6.91;86.28
5522;BME280;2783;48.730;8.006;2023-02-12T01:09:58;102157.91;;;6.89;86.85
5522;BME280;2783;48.730;8.006;2023-02-12T01:12:23;102158.03;;;6.95;85.75
5522;BME280;2783;48.730;8.006;2023-02-12T01:14:48;102157.97;;;6.92;85.39
5522;BME280;2783;48.730;8.006;2023-02-12T01:17:14;102158.78;;;6.88;85.14
5522;BME280;2783;48.730;8.006;2023-02-12T01:19:39;102167.56;;;6.85;84.90
5522;BME280;2783;48.730;8.006;2023-02-12T01:22:04;102167.50;;;6.82;85.14
5522;BME280;2783;48.730;8.006;2023-02-12T01:24:29;102166.66;;;6.85;84.92
5522;BME280;2783;48.730;8.006;2023-02-12T01:26:55;102164.94;;;6.85;85.23
5522;BME280;2783;48.730;8.006;2023-02-12T01:29:20;102167.66;;;6.91;84.98
5522;BME280;2783;48.730;8.006;2023-02-12T01:31:45;102157.91;;;6.89;84.95
5522;BME280;2783;48.730;8.006;2023-02-12T01:34:11;102165.81;;;6.87;84.71
5522;BME280;2783;48.730;8.006;2023-02-12T01:36:36;102169.28;;;6.83;84.99
5522;BME280;2783;48.730;8.006;2023-02-12T01:39:02;102165.81;;;6.87;84.60
5522;BME280;2783;48.730;8.006;2023-02-12T01:41:28;102169.28;;;6.83;85.54
5522;BME280;2783;48.730;8.006;2023-02-12T01:46:38;102168.47;;;6.87;85.89
5522;BME280;2783;48.730;8.006;2023-02-12T01:49:04;102164.06;;;6.88;85.49
5522;BME280;2783;48.730;8.006;2023-02-12T01:51:31;102168.44;;;6.86;85.50
5522;BME280;2783;48.730;8.006;2023-02-12T01:53:57;102165.78;;;6.84;85.83
5522;BME280;2783;48.730;8.006;2023-02-12T01:56:24;102162.25;;;6.84;86.03
5522;BME280;2783;48.730;8.006;2023-02-12T01:58:50;102164.03;;;6.85;86.93
5522;BME280;2783;48.730;8.006;2023-02-12T02:01:17;102158.72;;;6.83;86.55
5522;BME280;2783;48.730;8.006;2023-02-12T02:03:44;102159.56;;;6.82;86.47
5522;BME280;2783;48.730;8.006;2023-02-12T02:06:12;102158.66;;;6.80;87.07
5522;BME280;2783;48.730;8.006;2023-02-12T02:08:38;102154.19;;;6.78;86.58
5522;BME280;2783;48.730;8.006;2023-02-12T02:11:03;102155.06;;;6.75;86.64
5522;BME280;2783;48.730;8.006;2023-02-12T02:13:49;102142.66;;;6.72;86.88
5522;BME280;2783;48.730;8.006;2023-02-12T02:16:33;102147.94;;;6.72;87.47
5522;BME280;2783;48.730;8.006;2023-02-12T02:26:53;102135.56;;;6.68;88.08
5522;BME280;2783;48.730;8.006;2023-02-12T02:31:58;102129.38;;;6.69;89.14
5522;BME280;2783;48.730;8.006;2023-02-12T02:34:41;102124.97;;;6.68;89.18
5522;BME280;2783;48.730;8.006;2023-02-12T02:37:15;102132.00;;;6.68;89.59
5522;BME280;2783;48.730;8.006;2023-02-12T02:39:49;102131.13;;;6.69;89.44
5522;BME280;2783;48.730;8.006;2023-02-12T02:42:18;102120.56;;;6.69;90.30
5522;BME280;2783;48.730;8.006;2023-02-12T02:44:49;102121.44;;;6.68;89.53
5522;BME280;2783;48.730;8.006;2023-02-12T02:47:17;102125.84;;;6.69;90.47
5522;BME280;2783;48.730;8.006;2023-02-12T02:49:46;102115.22;;;6.66;90.60
5522;BME280;2783;48.730;8.006;2023-02-12T02:52:15;102108.19;;;6.66;90.05
5522;BME280;2783;48.730;8.006;2023-02-12T02:54:43;102108.22;;;6.68;90.21
5522;BME280;2783;48.730;8.006;2023-02-12T02:57:13;102114.38;;;6.67;90.53
5522;BME280;2783;48.730;8.006;2023-02-12T02:59:44;102106.31;;;6.61;90.24
5522;BME280;2783;48.730;8.006;2023-02-12T03:02:15;102111.63;;;6.62;90.41
5522;BME280;2783;48.730;8.006;2023-02-12T03:04:46;102109.84;;;6.60;91.04
5522;BME280;2783;48.730;8.006;2023-02-12T03:09:43;102108.97;;;6.61;90.76
5522;BME280;2783;48.730;8.006;2023-02-12T03:12:14;102120.53;;;6.67;90.87
5522;BME280;2783;48.730;8.006;2023-02-12T03:14:42;102124.94;;;6.67;90.22
5522;BME280;2783;48.730;8.006;2023-02-12T03:17:11;102074.28;;;6.43;90.34
5522;BME280;2783;48.730;8.006;2023-02-12T03:19:40;102123.19;;;6.69;90.23
5522;BME280;2783;48.730;8.006;2023-02-12T03:22:07;102112.69;;;6.72;88.92
5522;BME280;2783;48.730;8.006;2023-02-12T03:24:43;102125.00;;;6.72;88.32
5522;BME280;2783;48.730;8.006;2023-02-12T03:27:12;102111.78;;;6.72;88.56
5522;BME280;2783;48.730;8.006;2023-02-12T03:29:39;102109.16;;;6.73;89.33
5522;BME280;2783;48.730;8.006;2023-02-12T03:37:35;102118.91;;;6.76;88.77
5522;BME280;2783;48.730;8.006;2023-02-12T03:45:04;102118.03;;;6.75;89.05
5522;BME280;2783;48.730;8.006;2023-02-12T03:47:41;102117.97;;;6.72;88.88
5522;BME280;2783;48.730;8.006;2023-02-12T03:52:42;102124.09;;;6.69;88.98
5522;BME280;2783;48.730;8.006;2023-02-12T03:55:08;102111.78;;;6.70;89.43
5522;BME280;2783;48.730;8.006;2023-02-12T03:57:37;102119.72;;;6.70;88.92
5522;BME280;2783;48.730;8.006;2023-02-12T04:00:08;102123.28;;;6.72;89.44
5522;BME280;2783;48.730;8.006;2023-02-12T04:02:34;102112.63;;;6.69;89.09
5522;BME280;2783;48.730;8.006;2023-02-12T04:05:04;102120.53;;;6.67;89.78
5522;BME280;2783;48.730;8.006;2023-02-12T04:07:29;102130.31;;;6.72;89.41
5522;BME280;2783;48.730;8.006;2023-02-12T04:09:54;102130.28;;;6.70;88.67
5522;BME280;2783;48.730;8.006;2023-02-12T04:17:30;102122.34;;;6.70;88.23
5522;BME280;2783;48.730;8.006;2023-02-12T04:27:53;102129.44;;;6.72;87.68
5522;BME280;2783;48.730;8.006;2023-02-12T04:30:23;102133.78;;;6.69;88.29
5522;BME280;2783;48.730;8.006;2023-02-12T04:32:50;102128.47;;;6.69;88.34
5522;BME280;2783;48.730;8.006;2023-02-12T04:37:52;102128.56;;;6.72;87.88
5522;BME280;2783;48.730;8.006;2023-02-12T04:40:19;102124.06;;;6.68;88.20
5522;BME280;2783;48.730;8.006;2023-02-12T04:42:47;102133.84;;;6.72;88.39
5522;BME280;2783;48.730;8.006;2023-02-12T04:45:14;102133.88;;;6.74;87.94
5522;BME280;2783;48.730;8.006;2023-02-12T04:47:40;102130.38;;;6.76;88.53
5522;BME280;2783;48.730;8.006;2023-02-12T04:50:05;102137.41;;;6.76;88.22
5522;BME280;2783;48.730;8.006;2023-02-12T04:52:31;102135.69;;;6.78;88.65
5522;BME280;2783;48.730;8.006;2023-02-12T04:54:56;102135.66;;;6.76;88.16
5522;BME280;2783;48.730;8.006;2023-02-12T04:57:22;102135.63;;;6.75;88.56
5522;BME280;2783;48.730;8.006;2023-02-12T04:59:47;102133.84;;;6.72;88.66
5522;BME280;2783;48.730;8.006;2023-02-12T05:02:12;102138.25;;;6.73;89.48
5522;BME280;2783;48.730;8.006;2023-02-12T05:04:37;102132.06;;;6.71;89.12
5522;BME280;2783;48.730;8.006;2023-02-12T05:07:03;102140.81;;;6.67;89.95
5522;BME280;2783;48.730;8.006;2023-02-12T05:09:28;102140.72;;;6.64;90.28
5522;BME280;2783;48.730;8.006;2023-02-12T05:11:53;102147.78;;;6.62;89.76
5522;BME280;2783;48.730;8.006;2023-02-12T05:14:18;102139.75;;;6.59;90.66
5522;BME280;2783;48.730;8.006;2023-02-12T05:16:44;102145.91;;;6.56;90.70
5522;BME280;2783;48.730;8.006;2023-02-12T05:19:09;102130.13;;;6.61;89.61
5522;BME280;2783;48.730;8.006;2023-02-12T05:21:35;102138.03;;;6.61;90.86
5522;BME280;2783;48.730;8.006;2023-02-12T05:24:00;102139.03;;;6.67;90.32
5522;BME280;2783;48.730;8.006;2023-02-12T05:26:26;102133.72;;;6.66;90.33
5522;BME280;2783;48.730;8.006;2023-02-12T05:28:52;102140.81;;;6.67;90.21
5522;BME280;2783;48.730;8.006;2023-02-12T05:31:19;102130.25;;;6.67;90.16
5522;BME280;2783;48.730;8.006;2023-02-12T05:33:45;102133.72;;;6.66;90.73
5522;BME280;2783;48.730;8.006;2023-02-12T05:36:12;102136.38;;;6.66;89.96
5522;BME280;2783;48.730;8.006;2023-02-12T05:38:38;102139.00;;;6.64;90.38
5522;BME280;2783;48.730;8.006;2023-02-12T05:41:05;102134.59;;;6.65;90.92
5522;BME280;2783;48.730;8.006;2023-02-12T05:43:30;102129.38;;;6.68;90.37
5522;BME280;2783;48.730;8.006;2023-02-12T05:45:59;102137.34;;;6.71;90.55
5522;BME280;2783;48.730;8.006;2023-02-12T05:48:26;102139.13;;;6.72;89.88
5522;BME280;2783;48.730;8.006;2023-02-12T05:50:51;102130.34;;;6.73;89.49
5522;BME280;2783;48.730;8.006;2023-02-12T05:53:16;102135.63;;;6.73;90.09
5522;BME280;2783;48.730;8.006;2023-02-12T05:55:42;102128.56;;;6.72;89.43
5522;BME280;2783;48.730;8.006;2023-02-12T05:58:07;102132.94;;;6.72;90.31
5522;BME280;2783;48.730;8.006;2023-02-12T06:00:32;102125.78;;;6.64;90.09
5522;BME280;2783;48.730;8.006;2023-02-12T06:02:57;102125.72;;;6.61;90.49
5522;BME280;2783;48.730;8.006;2023-02-12T06:05:23;102130.16;;;6.64;90.43
5522;BME280;2783;48.730;8.006;2023-02-12T06:07:48;102119.66;;;6.67;91.21
5522;BME280;2783;48.730;8.006;2023-02-12T06:10:13;102124.94;;;6.67;90.53
5522;BME280;2783;48.730;8.006;2023-02-12T06:12:38;102122.31;;;6.67;90.85
5522;BME280;2783;48.730;8.006;2023-02-12T06:15:04;102124.06;;;6.66;91.79
5522;BME280;2783;48.730;8.006;2023-02-12T06:17:29;102125.78;;;6.64;92.26
5522;BME280;2783;48.730;8.006;2023-02-12T06:19:54;102128.34;;;6.60;92.61
5522;BME280;2783;48.730;8.006;2023-02-12T06:22:19;102123.91;;;6.59;92.65
5522;BME280;2783;48.730;8.006;2023-02-12T06:24:45;102125.69;;;6.60;93.05
5522;BME280;2783;48.730;8.006;2023-02-12T06:27:10;102129.25;;;6.60;94.39
5522;BME280;2783;48.730;8.006;2023-02-12T06:29:35;102130.06;;;6.58;95.50
5522;BME280;2783;48.730;8.006;2023-02-12T06:32:00;102134.25;;;6.45;95.87
5522;BME280;2783;48.730;8.006;2023-02-12T06:34:26;102128.06;;;6.43;96.13
5522;BME280;2783;48.730;8.006;2023-02-12T06:36:51;102127.94;;;6.37;95.62
5522;BME280;2783;48.730;8.006;2023-02-12T06:39:16;102123.72;;;6.47;96.33
5522;BME280;2783;48.730;8.006;2023-02-12T06:41:42;102135.91;;;6.39;96.97
5522;BME280;2783;48.730;8.006;2023-02-12T06:44:09;102134.00;;;6.32;96.67
5522;BME280;2783;48.730;8.006;2023-02-12T06:46:34;102131.28;;;6.27;96.21
5522;BME280;2783;48.730;8.006;2023-02-12T06:48:59;102131.09;;;6.18;95.34
5522;BME280;2783;48.730;8.006;2023-02-12T06:51:25;102132.59;;;6.03;95.35
5522;BME280;2783;48.730;8.006;2023-02-12T06:53:51;102126.34;;;5.99;95.79
5522;BME280;2783;48.730;8.006;2023-02-12T06:56:17;102130.47;;;5.87;95.81
5522;BME280;2783;48.730;8.006;2023-02-12T06:58:44;102130.22;;;5.75;95.99
5522;BME280;2783;48.730;8.006;2023-02-12T07:01:10;102133.69;;;5.74;96.35
5522;BME280;2783;48.730;8.006;2023-02-12T07:03:38;102140.56;;;5.66;96.09
5522;BME280;2783;48.730;8.006;2023-02-12T07:06:03;102138.66;;;5.60;96.76
5522;BME280;2783;48.730;8.006;2023-02-12T07:08:29;102139.59;;;5.62;96.39
5522;BME280;2783;48.730;8.006;2023-02-12T07:10:54;102139.56;;;5.61;96.57
5522;BME280;2783;48.730;8.006;2023-02-12T07:13:19;102145.78;;;5.63;96.24
5522;BME280;2783;48.730;8.006;2023-02-12T07:15:44;102139.50;;;5.58;96.33
5522;BME280;2783;48.730;8.006;2023-02-12T07:18:10;102140.28;;;5.54;96.72
5522;BME280;2783;48.730;8.006;2023-02-12T07:20:35;102139.44;;;5.53;96.18
5522;BME280;2783;48.730;8.006;2023-02-12T07:23:00;102141.19;;;5.54;96.56
5522;BME280;2783;48.730;8.006;2023-02-12T07:25:25;102136.75;;;5.52;96.15
5522;BME280;2783;48.730;8.006;2023-02-12T07:27:51;102136.81;;;5.55;96.36
5522;BME280;2783;48.730;8.006;2023-02-12T07:30:16;102137.38;;;5.82;98.69
5522;BME280;2783;48.730;8.006;2023-02-12T07:32:41;102140.09;;;6.28;98.65
5522;BME280;2783;48.730;8.006;2023-02-12T07:35:07;102137.00;;;7.04;100.00
5522;BME280;2783;48.730;8.006;2023-02-12T07:37:32;102129.38;;;8.73;96.82
5522;BME280;2783;48.730;8.006;2023-02-12T07:39:57;102123.19;;;10.40;89.47
5522;BME280;2783;48.730;8.006;2023-02-12T07:42:23;102121.28;;;11.84;77.16
5522;BME280;2783;48.730;8.006;2023-02-12T07:44:48;102125.47;;;12.30;65.57
5522;BME280;2783;48.730;8.006;2023-02-12T07:47:14;102114.63;;;12.54;63.50
5522;BME280;2783;48.730;8.006;2023-02-12T07:49:40;102117.16;;;13.65;60.04
5522;BME280;2783;48.730;8.006;2023-02-12T07:52:05;102115.44;;;15.35;55.03
5522;BME280;2783;48.730;8.006;2023-02-12T07:54:31;102114.81;;;16.87;49.43
5522;BME280;2783;48.730;8.006;2023-02-12T07:56:56;102118.03;;;17.98;46.02
5522;BME280;2783;48.730;8.006;2023-02-12T07:59:22;102114.69;;;18.50;43.20
5522;BME280;2783;48.730;8.006;2023-02-12T08:01:48;102109.44;;;18.73;42.26
5522;BME280;2783;48.730;8.006;2023-02-12T08:04:14;102115.66;;;19.01;40.83
5522;BME280;2783;48.730;8.006;2023-02-12T08:06:42;102110.19;;;18.49;41.24
5522;BME280;2783;48.730;8.006;2023-02-12T08:09:09;102112.22;;;19.22;40.65
5522;BME280;2783;48.730;8.006;2023-02-12T08:11:34;102109.94;;;19.60;39.56
5522;BME280;2783;48.730;8.006;2023-02-12T08:14:00;102101.94;;;20.05;38.80
5522;BME280;2783;48.730;8.006;2023-02-12T08:16:26;102102.94;;;20.49;37.99
5522;BME280;2783;48.730;8.006;2023-02-12T08:18:52;102098.81;;;21.05;37.42
5522;BME280;2783;48.730;8.006;2023-02-12T08:21:19;102099.53;;;21.89;35.85
5522;BME280;2783;48.730;8.006;2023-02-12T08:23:45;102093.69;;;22.16;36.13
5522;BME280;2783;48.730;8.006;2023-02-12T08:26:29;102090.72;;;22.60;35.02
5522;BME280;2783;48.730;8.006;2023-02-12T08:28:59;102088.41;;;22.69;35.59
5522;BME280;2783;48.730;8.006;2023-02-12T08:31:27;102084.59;;;22.73;35.68
5522;BME280;2783;48.730;8.006;2023-02-12T08:33:52;102087.41;;;22.89;35.57
5522;BME280;2783;48.730;8.006;2023-02-12T08:36:20;102093.41;;;22.78;35.90
5522;BME280;2783;48.730;8.006;2023-02-12T08:38:45;102081.13;;;23.05;36.26
5522;BME280;2783;48.730;8.006;2023-02-12T08:41:12;102086.44;;;23.42;35.69
5522;BME280;2783;48.730;8.006;2023-02-12T08:43:38;102090.09;;;23.41;35.60
5522;BME280;2783;48.730;8.006;2023-02-12T08:46:05;102087.41;;;23.74;35.05
5522;BME280;2783;48.730;8.006;2023-02-12T08:48:30;102086.56;;;24.06;34.68
5522;BME280;2783;48.730;8.006;2023-02-12T08:50:55;102092.31;;;24.33;34.29
5522;BME280;2783;48.730;8.006;2023-02-12T08:53:21;102089.13;;;24.40;33.98
5522;BME280;2783;48.730;8.006;2023-02-12T08:55:47;102083.84;;;24.53;34.17
5522;BME280;2783;48.730;8.006;2023-02-12T08:58:12;102090.72;;;24.91;33.67
5522;BME280;2783;48.730;8.006;2023-02-12T09:00:37;102091.22;;;25.27;32.97
5522;BME280;2783;48.730;8.006;2023-02-12T09:03:02;102084.00;;;25.12;33.51
5522;BME280;2783;48.730;8.006;2023-02-12T09:05:28;102092.41;;;25.23;33.24
5522;BME280;2783;48.730;8.006;2023-02-12T09:07:53;102085.63;;;25.01;33.87
5522;BME280;2783;48.730;8.006;2023-02-12T09:10:18;102092.50;;;24.77;34.05
5522;BME280;2783;48.730;8.006;2023-02-12T09:12:44;102089.75;;;24.45;34.53
5522;BME280;2783;48.730;8.006;2023-02-12T09:15:09;102093.34;;;24.61;33.66
5522;BME280;2783;48.730;8.006;2023-02-12T09:17:34;102088.78;;;24.46;33.96
5522;BME280;2783;48.730;8.006;2023-02-12T09:19:59;102093.69;;;24.40;34.41
5522;BME280;2783;48.730;8.006;2023-02-12T09:22:26;102102.13;;;24.20;35.04
5522;BME280;2783;48.730;8.006;2023-02-12T09:24:51;102103.59;;;23.60;35.82
5522;BME280;2783;48.730;8.006;2023-02-12T09:27:16;102101.25;;;23.70;35.43
5522;BME280;2783;48.730;8.006;2023-02-12T09:29:42;102102.69;;;23.77;35.35
5522;BME280;2783;48.730;8.006;2023-02-12T09:32:07;102095.03;;;23.68;35.61
5522;BME280;2783;48.730;8.006;2023-02-12T09:34:33;102105.28;;;23.95;35.41
5522;BME280;2783;48.730;8.006;2023-02-12T09:36:59;102092.47;;;23.65;35.50
5522;BME280;2783;48.730;8.006;2023-02-12T09:39:24;102096.03;;;23.32;36.43
5522;BME280;2783;48.730;8.006;2023-02-12T09:42:02;102102.34;;;22.97;35.89
5522;BME280;2783;48.730;8.006;2023-02-12T09:44:38;102103.94;;;22.47;37.29
5522;BME280;2783;48.730;8.006;2023-02-12T09:47:16;102099.19;;;22.71;37.12
5522;BME280;2783;48.730;8.006;2023-02-12T09:52:16;102102.78;;;21.97;38.71
5522;BME280;2783;48.730;8.006;2023-02-12T09:54:41;102105.41;;;21.98;38.41
5522;BME280;2783;48.730;8.006;2023-02-12T09:57:27;102102.13;;;21.52;38.72
5522;BME280;2783;48.730;8.006;2023-02-12T09:59:59;102095.69;;;21.74;39.37
5522;BME280;2783;48.730;8.006;2023-02-12T10:02:25;102089.81;;;22.03;38.22
5522;BME280;2783;48.730;8.006;2023-02-12T10:04:51;102089.75;;;22.05;38.92
5522;BME280;2783;48.730;8.006;2023-02-12T10:12:39;102081.28;;;23.02;37.33
5522;BME280;2783;48.730;8.006;2023-02-12T10:17:45;102075.81;;;22.68;38.43
5522;BME280;2783;48.730;8.006;2023-02-12T10:25:19;102082.88;;;22.89;38.87
5522;BME280;2783;48.730;8.006;2023-02-12T10:27:51;102083.16;;;22.83;38.15
5522;BME280;2783;48.730;8.006;2023-02-12T10:33:06;102083.44;;;22.60;38.06
5522;BME280;2783;48.730;8.006;2023-02-12T10:35:33;102081.69;;;22.59;38.77
5522;BME280;2783;48.730;8.006;2023-02-12T10:38:00;102069.09;;;22.75;38.83
5522;BME280;2783;48.730;8.006;2023-02-12T10:40:32;102072.88;;;22.73;38.05
5522;BME280;2783;48.730;8.006;2023-02-12T10:42:58;102074.91;;;22.49;38.02
5522;BME280;2783;48.730;8.006;2023-02-12T10:45:34;102062.00;;;22.73;38.57
5522;BME280;2783;48.730;8.006;2023-02-12T10:53:08;102057.81;;;23.18;37.57
5522;BME280;2783;48.730;8.006;2023-02-12T10:55:37;102059.13;;;23.28;37.28
5522;BME280;2783;48.730;8.006;2023-02-12T10:58:03;102055.59;;;23.09;37.60
5522;BME280;2783;48.730;8.006;2023-02-12T11:00:30;102049.69;;;22.47;37.67
5522;BME280;2783;48.730;8.006;2023-02-12T11:05:50;102039.41;;;22.37;39.82
5522;BME280;2783;48.730;8.006;2023-02-12T11:10:49;102037.38;;;21.66;39.98
5522;BME280;2783;48.730;8.006;2023-02-12T11:13:25;102039.34;;;21.82;39.38
5522;BME280;2783;48.730;8.006;2023-02-12T11:15:52;102032.59;;;22.28;39.44
5522;BME280;2783;48.730;8.006;2023-02-12T11:18:24;102028.28;;;22.78;38.75
5522;BME280;2783;48.730;8.006;2023-02-12T11:21:03;102023.31;;;22.86;37.89
5522;BME280;2783;48.730;8.006;2023-02-12T11:23:31;102035.59;;;22.76;38.31
5522;BME280;2783;48.730;8.006;2023-02-12T11:26:21;102027.75;;;22.53;38.59
5522;BME280;2783;48.730;8.006;2023-02-12T11:28:57;102028.81;;;22.49;38.14
5522;BME280;2783;48.730;8.006;2023-02-12T11:31:24;102026.00;;;21.96;38.53
5522;BME280;2783;48.730;8.006;2023-02-12T11:34:13;102022.59;;;21.73;39.89
5522;BME280;2783;48.730;8.006;2023-02-12T11:36:40;102011.78;;;22.10;39.66
5522;BME280;2783;48.730;8.006;2023-02-12T11:39:13;102015.59;;;22.25;40.16
5522;BME280;2783;48.730;8.006;2023-02-12T11:41:41;102013.25;;;21.80;39.31
5522;BME280;2783;48.730;8.006;2023-02-12T11:44:08;102011.63;;;22.13;38.82
5522;BME280;2783;48.730;8.006;2023-02-12T11:46:34;102008.28;;;22.08;38.65
5522;BME280;2783;48.730;8.006;2023-02-12T11:49:00;102013.69;;;22.08;39.09
5522;BME280;2783;48.730;8.006;2023-02-12T11:51:27;102005.06;;;22.18;39.27
5522;BME280;2783;48.730;8.006;2023-02-12T11:53:54;102004.00;;;22.21;39.55
5522;BME280;2783;48.730;8.006;2023-02-12T11:56:20;101999.13;;;22.46;39.36
5522;BME280;2783;48.730;8.006;2023-02-12T11:58:46;102000.22;;;22.06;39.03
5522;BME280;2783;48.730;8.006;2023-02-12T12:01:23;102001.34;;;21.64;40.02
5522;BME280;2783;48.730;8.006;2023-02-12T12:11:40;101995.22;;;22.16;39.32
5522;BME280;2783;48.730;8.006;2023-02-12T12:16:35;101998.47;;;21.87;39.30
5522;BME280;2783;48.730;8.006;2023-02-12T12:19:22;101987.13;;;21.97;39.56
5522;BME280;2783;48.730;8.006;2023-02-12T12:22:13;101993.28;;;22.72;39.14
5522;BME280;2783;48.730;8.006;2023-02-12T12:33:14;101973.63;;;22.50;38.26
5522;BME280;2783;48.730;8.006;2023-02-12T12:35:47;101984.44;;;22.33;38.62
5522;BME280;2783;48.730;8.006;2023-02-12T12:38:19;101983.22;;;22.57;38.18
5522;BME280;2783;48.730;8.006;2023-02-12T12:40:58;101975.81;;;22.95;37.57
5522;BME280;2783;48.730;8.006;2023-02-12T12:43:38;101971.03;;;23.50;38.01
5522;BME280;2783;48.730;8.006;2023-02-12T12:53:54;101968.88;;;22.72;36.95
5522;BME280;2783;48.730;8.006;2023-02-12T12:58:53;101957.22;;;22.87;37.20
5522;BME280;2783;48.730;8.006;2023-02-12T13:01:41;101962.31;;;22.93;37.44
5522;BME280;2783;48.730;8.006;2023-02-12T13:10:20;101955.88;;;22.62;38.50
5522;BME280;2783;48.730;8.006;2023-02-12T13:15:20;101954.63;;;22.50;37.68
5522;BME280;2783;48.730;8.006;2023-02-12T13:17:51;101942.66;;;21.64;39.50
5522;BME280;2783;48.730;8.006;2023-02-12T13:25:40;101937.38;;;21.80;39.03
5522;BME280;2783;48.730;8.006;2023-02-12T13:28:09;101932.47;;;21.88;39.01
5522;BME280;2783;48.730;8.006;2023-02-12T13:30:38;101939.84;;;22.03;39.05
5522;BME280;2783;48.730;8.006;2023-02-12T13:33:09;101919.00;;;21.68;39.16
5522;BME280;2783;48.730;8.006;2023-02-12T13:35:37;101919.81;;;21.51;40.06
5522;BME280;2783;48.730;8.006;2023-02-12T13:38:06;101921.94;;;21.82;38.76
5522;BME280;2783;48.730;8.006;2023-02-12T13:40:33;101920.38;;;21.95;39.08
5522;BME280;2783;48.730;8.006;2023-02-12T13:43:20;101921.09;;;22.34;37.73
5522;BME280;2783;48.730;8.006;2023-02-12T14:01:10;101930.97;;;18.62;45.58
5522;BME280;2783;48.730;8.006;2023-02-12T14:03:36;101920.41;;;18.56;46.06
5522;BME280;2783;48.730;8.006;2023-02-12T14:06:21;101919.16;;;18.66;45.71
5522;BME280;2783;48.730;8.006;2023-02-12T14:08:50;101926.50;;;18.34;46.51
5522;BME280;2783;48.730;8.006;2023-02-12T14:11:17;101927.00;;;17.66;47.42
5522;BME280;2783;48.730;8.006;2023-02-12T14:13:46;101928.56;;;16.82;50.17
5522;BME280;2783;48.730;8.006;2023-02-12T14:16:17;101925.94;;;16.49;50.78
5522;BME280;2783;48.730;8.006;2023-02-12T14:18:43;101920.84;;;16.02;53.25
5522;BME280;2783;48.730;8.006;2023-02-12T14:23:34;101922.44;;;15.32;55.72
5522;BME280;2783;48.730;8.006;2023-02-12T14:33:43;101928.97;;;14.77;59.79
5522;BME280;2783;48.730;8.006;2023-02-12T14:36:16;101923.69;;;14.72;58.97
5522;BME280;2783;48.730;8.006;2023-02-12T14:41:14;101926.13;;;14.37;60.96
5522;BME280;2783;48.730;8.006;2023-02-12T14:49:20;101926.63;;;14.08;62.29
5522;BME280;2783;48.730;8.006;2023-02-12T14:54:35;101925.94;;;13.94;62.77
5522;BME280;2783;48.730;8.006;2023-02-12T14:57:46;101924.34;;;13.83;63.54
5522;BME280;2783;48.730;8.006;2023-02-12T14:59:59;101917.50;;;13.65;64.06
5522;BME280;2783;48.730;8.006;2023-02-12T15:02:26;101921.91;;;13.66;64.74
5522;BME280;2783;48.730;8.006;2023-02-12T15:04:53;101923.94;;;13.51;65.17
5522;BME280;2783;48.730;8.006;2023-02-12T15:07:26;101921.44;;;13.39;65.91
5522;BME280;2783;48.730;8.006;2023-02-12T15:09:57;101915.38;;;13.28;65.69
5522;BME280;2783;48.730;8.006;2023-02-12T15:15:12;101919.81;;;13.27;67.38
5522;BME280;2783;48.730;8.006;2023-02-12T15:17:36;101922.56;;;13.19;67.79
5522;BME280;2783;48.730;8.006;2023-02-12T15:20:05;101921.63;;;13.23;67.84
5522;BME280;2783;48.730;8.006;2023-02-12T15:22:35;101920.06;;;13.09;68.06
5522;BME280;2783;48.730;8.006;2023-02-12T15:27:46;101919.47;;;12.81;68.54
5522;BME280;2783;48.730;8.006;2023-02-12T15:30:14;101914.09;;;12.84;68.71
5522;BME280;2783;48.730;8.006;2023-02-12T15:32:39;101912.28;;;12.88;68.27
5522;BME280;2783;48.730;8.006;2023-02-12T15:35:17;101916.75;;;12.84;68.88
5522;BME280;2783;48.730;8.006;2023-02-12T15:37:44;101915.16;;;12.67;69.46
5522;BME280;2783;48.730;8.006;2023-02-12T15:40:12;101917.03;;;12.62;70.20
5522;BME280;2783;48.730;8.006;2023-02-12T15:42:38;101903.69;;;12.57;70.26
5522;BME280;2783;48.730;8.006;2023-02-12T15:47:40;101903.69;;;12.57;70.59
5522;BME280;2783;48.730;8.006;2023-02-12T15:50:06;101901.06;;;12.56;70.29
5522;BME280;2783;48.730;8.006;2023-02-12T15:52:36;101901.19;;;12.42;71.68
5522;BME280;2783;48.730;8.006;2023-02-12T15:55:02;101897.59;;;12.46;71.66
5522;BME280;2783;48.730;8.006;2023-02-12T15:57:29;101896.78;;;12.38;71.83
5522;BME280;2783;48.730;8.006;2023-02-12T16:00:06;101891.50;;;12.34;71.87
5522;BME280;2783;48.730;8.006;2023-02-12T16:02:33;101889.84;;;12.22;71.39